Time;durP1;ratioP1;P1;durP2;ratioP2;P2;SDS_P1;SDS_P2;PMS_P1;PMS_P2;Temp;Humidity;BMP_temperature;BMP_pressure;BME280_temperature;BME280_humidity;BME280_pressure;Samples;Min_cycle;Max_cycle;Signal;HPM_P1;HPM_P2
2021/01/11 00:01:44;;;;;;;22.17;13.20;;;-6.90;98.00;;;;;;5090833;28;20116;-66
2021/01/11 00:04:12;;;;;;;22.13;14.00;;;-7.10;98.00;;;;;;5076975;28;20029;-67
2021/01/11 00:06:42;;;;;;;21.83;15.00;;;-7.20;98.00;;;;;;5080555;28;20099;-65
2021/01/11 00:09:08;;;;;;;23.63;15.63;;;-7.30;98.00;;;;;;5088300;28;20112;-67
2021/01/11 00:11:36;;;;;;;26.42;16.73;;;-7.50;98.00;;;;;;5084632;28;20021;-66
2021/01/11 00:14:06;;;;;;;30.17;17.73;;;-7.70;98.00;;;;;;5080331;28;20144;-66
2021/01/11 00:16:32;;;;;;;27.05;16.58;;;-7.80;98.00;;;;;;5076576;28;20024;-67
2021/01/11 00:18:58;;;;;;;23.65;14.55;;;-7.70;98.00;;;;;;5077510;28;20036;-65
2021/01/11 00:21:25;;;;;;;24.35;13.60;;;-7.50;98.00;;;;;;5083177;28;20024;-65
2021/01/11 00:23:51;;;;;;;28.92;14.82;;;-7.70;98.00;;;;;;5074297;28;20031;-66
2021/01/11 00:26:17;;;;;;;24.20;15.27;;;-7.80;98.00;;;;;;5090065;28;20020;-67
2021/01/11 00:28:43;;;;;;;24.67;15.95;;;-7.80;98.00;;;;;;5088996;28;20317;-68
2021/01/11 00:31:10;;;;;;;24.38;14.52;;;-7.80;98.00;;;;;;5085469;28;20410;-65
2021/01/11 00:33:36;;;;;;;24.38;13.55;;;-8.00;98.00;;;;;;5083552;28;20039;-65
2021/01/11 00:36:03;;;;;;;21.77;13.23;;;-8.00;98.00;;;;;;5076692;28;20154;-65
2021/01/11 00:38:30;;;;;;;24.15;14.65;;;-7.90;98.00;;;;;;5076193;28;20115;-65
2021/01/11 00:40:57;;;;;;;21.30;13.93;;;-7.80;98.00;;;;;;5086506;28;20031;-65
2021/01/11 00:43:24;;;;;;;22.63;15.55;;;-7.70;98.00;;;;;;5085459;28;20020;-65
2021/01/11 00:45:51;;;;;;;22.88;14.63;;;-7.70;98.00;;;;;;5080201;28;20052;-65
2021/01/11 00:48:16;;;;;;;26.75;15.40;;;-7.70;98.00;;;;;;5075243;28;20024;-64
2021/01/11 00:50:42;;;;;;;23.77;14.13;;;-7.70;98.00;;;;;;5078779;28;20030;-66
2021/01/11 00:53:08;;;;;;;19.70;13.15;;;-7.80;98.00;;;;;;5074184;28;20116;-66
2021/01/11 00:55:34;;;;;;;20.77;13.98;;;-8.00;98.00;;;;;;5091484;28;20034;-64
2021/01/11 00:58:00;;;;;;;21.48;13.07;;;-8.10;98.00;;;;;;5074102;28;20028;-65
2021/01/11 01:00:26;;;;;;;24.48;14.30;;;-8.20;98.00;;;;;;5074248;28;20033;-64
2021/01/11 01:02:52;;;;;;;22.95;15.65;;;-8.30;98.00;;;;;;5078643;28;20324;-64
2021/01/11 01:05:19;;;;;;;23.17;14.60;;;-8.20;98.00;;;;;;5075848;28;20031;-64
2021/01/11 01:07:45;;;;;;;24.17;15.52;;;-8.10;98.00;;;;;;5072693;28;20082;-64
2021/01/11 01:10:15;;;;;;;23.48;14.88;;;-8.10;98.00;;;;;;5075350;28;20028;-66
2021/01/11 01:12:41;;;;;;;25.60;15.20;;;-8.10;98.00;;;;;;5077017;28;20025;-67
2021/01/11 01:15:11;;;;;;;20.73;14.25;;;-8.10;98.00;;;;;;5089714;28;20093;-65
2021/01/11 01:17:37;;;;;;;27.00;15.38;;;-8.10;98.00;;;;;;5074698;28;20037;-64
2021/01/11 01:20:04;;;;;;;23.13;15.98;;;-8.10;98.00;;;;;;5079093;28;20445;-66
2021/01/11 01:22:30;;;;;;;24.40;14.50;;;-8.10;98.00;;;;;;5073407;28;20369;-66
2021/01/11 01:24:56;;;;;;;25.13;15.95;;;-8.10;98.00;;;;;;5077600;28;20051;-65
2021/01/11 01:27:21;;;;;;;29.70;15.60;;;-8.10;98.00;;;;;;5094659;28;20028;-66
2021/01/11 01:29:47;;;;;;;23.70;16.08;;;-8.10;98.00;;;;;;5077700;28;20028;-64
2021/01/11 01:32:13;;;;;;;24.40;15.15;;;-8.10;98.00;;;;;;5075025;28;20017;-66
2021/01/11 01:34:38;;;;;;;22.95;15.18;;;-8.10;98.00;;;;;;5075202;28;20025;-66
2021/01/11 01:37:04;;;;;;;24.58;15.07;;;-8.20;98.00;;;;;;5074813;28;20032;-65
2021/01/11 01:39:31;;;;;;;19.02;13.10;;;-8.30;98.00;;;;;;5087436;28;20025;-64
2021/01/11 01:41:57;;;;;;;26.05;14.77;;;-8.30;98.00;;;;;;5080536;28;20203;-64
2021/01/11 01:44:22;;;;;;;25.70;15.30;;;-8.40;98.00;;;;;;5075808;28;20078;-67
2021/01/11 01:46:48;;;;;;;26.65;15.50;;;-8.50;98.00;;;;;;5080768;28;20318;-67
2021/01/11 01:49:14;;;;;;;21.15;12.50;;;-8.60;98.00;;;;;;5073072;28;20028;-67
2021/01/11 01:51:40;;;;;;;22.05;14.35;;;-8.60;98.00;;;;;;5084508;28;20025;-67
2021/01/11 01:54:07;;;;;;;22.85;14.52;;;-8.60;98.00;;;;;;5086183;28;20440;-65
2021/01/11 01:56:33;;;;;;;28.10;16.42;;;-8.60;98.00;;;;;;5081130;28;20028;-65
2021/01/11 01:58:59;;;;;;;27.40;16.65;;;-8.50;98.00;;;;;;5083534;28;20346;-65
2021/01/11 02:01:25;;;;;;;23.60;15.10;;;-8.50;98.00;;;;;;5079589;28;20330;-67
2021/01/11 02:03:51;;;;;;;20.15;13.23;;;-8.60;98.00;;;;;;5079162;28;20035;-65
2021/01/11 02:06:19;;;;;;;27.05;15.65;;;-8.80;98.00;;;;;;5080437;28;20028;-65
2021/01/11 02:09:02;;;;;;;23.05;14.43;;;-8.80;98.00;;;;;;5076559;28;20409;-64
2021/01/11 02:11:35;;;;;;;25.65;13.93;;;-8.90;98.00;;;;;;5084437;28;20025;-65
2021/01/11 02:14:25;;;;;;;24.13;14.13;;;-9.10;98.00;;;;;;5089327;28;20024;-64
2021/01/11 02:17:00;;;;;;;22.70;15.10;;;-9.20;98.00;;;;;;5083583;28;20045;-67
2021/01/11 02:20:00;;;;;;;24.17;15.67;;;-9.30;98.00;;;;;;5094083;28;20111;-66
2021/01/11 02:22:50;;;;;;;24.20;14.63;;;-9.40;98.00;;;;;;5078406;28;20052;-67
2021/01/11 02:25:37;;;;;;;25.08;15.75;;;-9.40;98.00;;;;;;5095497;28;20030;-67
2021/01/11 02:28:16;;;;;;;26.67;15.10;;;-9.30;98.00;;;;;;5077931;28;20024;-66
2021/01/11 02:30:45;;;;;;;22.65;14.43;;;-9.30;98.00;;;;;;5078379;28;20669;-67
2021/01/11 02:33:16;;;;;;;27.15;16.20;;;-9.20;98.00;;;;;;5077929;28;20027;-67
2021/01/11 02:35:54;;;;;;;27.50;16.92;;;-9.20;98.00;;;;;;5078165;28;20021;-67
2021/01/11 02:38:22;;;;;;;27.27;17.23;;;-9.10;98.00;;;;;;5077130;28;20063;-67
2021/01/11 02:40:48;;;;;;;26.50;15.85;;;-9.20;98.00;;;;;;5077785;28;20318;-67
2021/01/11 02:43:14;;;;;;;27.08;16.73;;;-9.10;98.00;;;;;;5081567;28;20081;-66
2021/01/11 02:45:40;;;;;;;25.98;16.80;;;-9.00;98.00;;;;;;5088785;28;20021;-67
2021/01/11 02:48:12;;;;;;;23.58;14.95;;;-9.00;98.00;;;;;;5080644;28;20025;-67
2021/01/11 02:51:07;;;;;;;28.40;16.45;;;-9.00;98.00;;;;;;5083065;28;20032;-65
2021/01/11 02:53:44;;;;;;;24.08;15.32;;;-9.00;98.00;;;;;;5076432;28;20032;-67
2021/01/11 02:56:22;;;;;;;23.25;14.65;;;-9.00;98.00;;;;;;5079594;28;20099;-65
2021/01/11 02:59:02;;;;;;;25.40;15.15;;;-9.20;98.00;;;;;;5088486;28;20038;-66
2021/01/11 03:01:42;;;;;;;29.02;15.77;;;-9.30;98.00;;;;;;5080618;28;20107;-66
2021/01/11 03:04:10;;;;;;;26.15;16.75;;;-9.30;98.00;;;;;;5076697;28;20362;-67
2021/01/11 03:06:36;;;;;;;27.80;17.70;;;-9.30;98.00;;;;;;5077707;28;20031;-66
2021/01/11 03:09:05;;;;;;;23.40;16.42;;;-9.20;98.00;;;;;;5081557;28;20033;-66
2021/01/11 03:11:36;;;;;;;27.58;17.17;;;-9.20;98.00;;;;;;5088028;28;20020;-66
2021/01/11 03:14:04;;;;;;;27.33;16.90;;;-9.40;98.00;;;;;;5083029;28;20070;-65
2021/01/11 03:16:30;;;;;;;31.48;18.80;;;-9.40;98.00;;;;;;5077657;28;20020;-65
2021/01/11 03:18:55;;;;;;;29.50;16.57;;;-9.30;98.00;;;;;;5085964;28;20051;-66
2021/01/11 03:21:21;;;;;;;25.98;16.77;;;-9.20;98.00;;;;;;5085890;28;20103;-67
2021/01/11 03:23:46;;;;;;;31.55;17.55;;;-9.20;98.00;;;;;;5079873;28;20033;-67
2021/01/11 03:26:20;;;;;;;26.17;15.98;;;-9.40;98.00;;;;;;5077260;28;20024;-66
2021/01/11 03:28:45;;;;;;;25.00;15.60;;;-9.30;98.00;;;;;;5084567;28;20033;-66
2021/01/11 03:31:11;;;;;;;26.38;17.55;;;-9.20;98.00;;;;;;5083778;28;20357;-67
2021/01/11 03:33:37;;;;;;;30.38;17.95;;;-9.20;98.00;;;;;;5076985;28;20029;-64
2021/01/11 03:36:02;;;;;;;31.23;16.98;;;-9.20;98.00;;;;;;5077418;28;20450;-65
2021/01/11 03:38:28;;;;;;;36.43;18.63;;;-9.00;98.00;;;;;;5086091;28;20478;-66
2021/01/11 03:41:01;;;;;;;28.67;16.75;;;-8.90;98.00;;;;;;5084831;28;20028;-66
2021/01/11 03:43:30;;;;;;;28.45;15.82;;;-9.00;98.00;;;;;;5080709;28;20064;-64
2021/01/11 03:45:56;;;;;;;28.63;16.83;;;-9.20;98.00;;;;;;5077057;28;20349;-65
2021/01/11 03:48:22;;;;;;;27.93;16.73;;;-9.60;98.00;;;;;;5093677;28;20077;-66
2021/01/11 03:50:49;;;;;;;24.00;14.50;;;-9.70;98.00;;;;;;5085104;28;20024;-65
2021/01/11 03:53:14;;;;;;;26.77;17.47;;;-9.80;98.00;;;;;;5093823;28;20024;-65
2021/01/11 03:55:43;;;;;;;25.77;16.90;;;-9.90;98.00;;;;;;5089175;28;20023;-64
2021/01/11 03:58:09;;;;;;;30.98;17.60;;;-9.60;98.00;;;;;;5077076;28;20086;-66
2021/01/11 04:00:35;;;;;;;25.87;17.87;;;-9.50;98.00;;;;;;5078897;28;20033;-65
2021/01/11 04:03:03;;;;;;;29.47;17.13;;;-9.30;98.00;;;;;;5095601;28;20058;-64
2021/01/11 04:05:33;;;;;;;29.13;16.70;;;-9.20;98.00;;;;;;5083104;28;20055;-65
2021/01/11 04:08:01;;;;;;;32.97;18.83;;;-9.20;98.00;;;;;;5092879;28;20050;-65
2021/01/11 04:10:28;;;;;;;28.58;17.77;;;-9.10;98.00;;;;;;5089324;28;20067;-65
2021/01/11 04:12:54;;;;;;;31.37;18.17;;;-9.20;98.00;;;;;;5086005;28;20412;-66
2021/01/11 04:15:19;;;;;;;32.33;19.15;;;-9.30;98.00;;;;;;5088633;28;20031;-65
2021/01/11 04:17:45;;;;;;;28.53;18.77;;;-9.20;98.00;;;;;;5092124;28;20132;-65
2021/01/11 04:20:11;;;;;;;27.70;17.27;;;-9.10;98.00;;;;;;5082812;28;20325;-66
2021/01/11 04:22:37;;;;;;;30.07;19.07;;;-9.00;98.00;;;;;;5076798;28;20107;-66
2021/01/11 04:25:03;;;;;;;30.57;19.10;;;-9.00;98.00;;;;;;5087621;28;20096;-67
2021/01/11 04:27:32;;;;;;;28.95;18.92;;;-8.90;98.00;;;;;;5089868;28;20388;-64
2021/01/11 04:30:00;;;;;;;35.53;19.17;;;-8.80;98.00;;;;;;5088083;28;20029;-65
2021/01/11 04:32:26;;;;;;;30.27;18.13;;;-8.80;98.00;;;;;;5088245;28;20035;-65
2021/01/11 04:34:51;;;;;;;29.83;18.33;;;-8.80;98.00;;;;;;5085091;28;20024;-65
2021/01/11 04:37:17;;;;;;;27.77;17.77;;;-8.80;98.00;;;;;;5092375;28;20417;-66
2021/01/11 04:39:43;;;;;;;33.47;18.65;;;-8.90;98.00;;;;;;5094152;28;20035;-66
2021/01/11 04:42:16;;;;;;;32.97;20.30;;;-9.00;98.00;;;;;;5082598;28;20502;-64
2021/01/11 04:44:41;;;;;;;37.88;20.55;;;-9.00;98.00;;;;;;5086013;28;20032;-66
2021/01/11 04:47:11;;;;;;;31.45;19.52;;;-9.10;98.00;;;;;;5086223;28;20055;-66
2021/01/11 04:49:38;;;;;;;53.83;31.42;;;-9.10;98.00;;;;;;5082424;28;20027;-64
2021/01/11 04:52:05;;;;;;;49.78;27.25;;;-9.00;98.00;;;;;;5091829;28;20328;-64
2021/01/11 04:54:33;;;;;;;61.30;37.58;;;-9.00;98.00;;;;;;5083078;28;20044;-65
2021/01/11 04:57:00;;;;;;;45.50;27.65;;;-9.00;98.00;;;;;;5091463;28;20039;-65
2021/01/11 04:59:28;;;;;;;34.88;21.63;;;-8.90;98.00;;;;;;5090822;28;20372;-66
2021/01/11 05:01:59;;;;;;;31.52;19.08;;;-8.90;98.00;;;;;;5079486;28;20309;-64
2021/01/11 05:04:25;;;;;;;35.38;20.05;;;-8.90;98.00;;;;;;5084331;28;20030;-64
2021/01/11 05:07:01;;;;;;;30.80;19.25;;;-8.90;98.00;;;;;;5081716;28;20024;-63
2021/01/11 05:09:30;;;;;;;33.25;20.23;;;-8.90;98.00;;;;;;5075118;28;20037;-67
2021/01/11 05:11:57;;;;;;;43.38;24.00;;;-9.00;98.00;;;;;;5086797;28;20062;-66
2021/01/11 05:14:25;;;;;;;41.03;22.33;;;-9.10;98.00;;;;;;5095010;28;20095;-66
2021/01/11 05:17:04;;;;;;;33.15;18.15;;;-8.90;98.00;;;;;;5078834;28;20036;-66
2021/01/11 05:19:30;;;;;;;28.02;16.05;;;-8.80;98.00;;;;;;5095232;28;20086;-66
2021/01/11 05:22:09;;;;;;;28.10;18.17;;;-8.70;98.00;;;;;;5089511;28;20456;-66
2021/01/11 05:24:40;;;;;;;33.85;19.95;;;-8.70;98.00;;;;;;5095395;28;20049;-65
2021/01/11 05:27:10;;;;;;;31.58;18.45;;;-8.70;98.00;;;;;;5086415;28;20520;-66
2021/01/11 05:29:38;;;;;;;29.45;18.77;;;-8.60;98.00;;;;;;5095170;28;20032;-66
2021/01/11 05:32:07;;;;;;;26.67;16.77;;;-8.50;98.00;;;;;;5082771;28;20017;-67
2021/01/11 05:34:50;;;;;;;24.92;17.25;;;-8.50;98.00;;;;;;5081049;28;20028;-66
2021/01/11 05:37:47;;;;;;;28.77;16.95;;;-8.60;98.00;;;;;;5086748;28;20032;-66
2021/01/11 05:40:15;;;;;;;24.98;16.67;;;-8.70;98.00;;;;;;5089116;28;20036;-66
2021/01/11 05:42:42;;;;;;;25.83;15.85;;;-8.70;98.00;;;;;;5074738;28;20017;-66
2021/01/11 05:45:24;;;;;;;25.58;15.43;;;-8.80;98.00;;;;;;5076157;28;20329;-65
2021/01/11 05:48:05;;;;;;;24.15;15.05;;;-8.80;98.00;;;;;;5081351;28;20024;-66
2021/01/11 05:50:41;;;;;;;26.40;15.02;;;-8.80;98.00;;;;;;5085835;28;20325;-66
2021/01/11 05:53:39;;;;;;;25.38;15.90;;;-8.70;98.00;;;;;;5087150;28;20028;-64
2021/01/11 05:56:05;;;;;;;24.00;15.48;;;-8.60;98.00;;;;;;5074499;28;20043;-64
2021/01/11 05:58:33;;;;;;;29.98;16.63;;;-8.40;98.00;;;;;;5077443;28;20032;-65
2021/01/11 06:00:59;;;;;;;26.63;15.38;;;-8.30;98.00;;;;;;5083355;28;20021;-64
2021/01/11 06:03:25;;;;;;;24.52;14.32;;;-8.20;98.00;;;;;;5092252;28;20020;-66
2021/01/11 06:05:54;;;;;;;28.10;14.60;;;-8.10;98.00;;;;;;5079808;28;20384;-66
2021/01/11 06:08:20;;;;;;;24.17;14.60;;;-8.10;98.00;;;;;;5086094;28;20074;-66
2021/01/11 06:10:46;;;;;;;23.50;15.13;;;-8.10;98.00;;;;;;5083921;28;20025;-66
2021/01/11 06:13:13;;;;;;;23.83;14.90;;;-8.30;98.00;;;;;;5082088;28;20103;-64
2021/01/11 06:15:39;;;;;;;25.75;15.23;;;-8.40;98.00;;;;;;5084815;28;20413;-66
2021/01/11 06:18:10;;;;;;;22.33;14.02;;;-8.40;98.00;;;;;;5087718;28;20047;-65
2021/01/11 06:20:41;;;;;;;23.23;15.05;;;-8.40;98.00;;;;;;5090600;28;20029;-64
2021/01/11 06:23:06;;;;;;;25.55;15.02;;;-8.50;98.00;;;;;;5082452;28;20028;-67
2021/01/11 06:25:33;;;;;;;24.25;14.95;;;-8.50;98.00;;;;;;5082559;28;20442;-64
2021/01/11 06:28:04;;;;;;;26.92;14.10;;;-8.50;98.00;;;;;;5085552;28;20051;-67
2021/01/11 06:30:41;;;;;;;20.92;13.32;;;-8.60;98.00;;;;;;5083112;28;20107;-67
2021/01/11 06:33:14;;;;;;;21.98;14.40;;;-8.60;98.00;;;;;;5076625;28;20044;-65
2021/01/11 06:35:48;;;;;;;27.02;15.07;;;-8.80;98.00;;;;;;5077074;28;20444;-66
2021/01/11 06:38:25;;;;;;;23.58;13.93;;;-9.00;98.00;;;;;;5087704;28;20081;-65
2021/01/11 06:40:54;;;;;;;24.08;15.10;;;-9.10;98.00;;;;;;5084209;28;20021;-66
2021/01/11 06:43:22;;;;;;;24.27;15.52;;;-9.20;98.00;;;;;;5087372;28;20052;-66
2021/01/11 06:45:49;;;;;;;23.37;14.43;;;-9.40;98.00;;;;;;5081180;28;20020;-64
2021/01/11 06:48:21;;;;;;;25.20;14.80;;;-9.50;98.00;;;;;;5080726;28;20024;-67
2021/01/11 06:50:48;;;;;;;26.40;16.17;;;-9.50;98.00;;;;;;5086644;28;20028;-64
2021/01/11 06:53:25;;;;;;;24.23;14.82;;;-9.50;98.00;;;;;;5088210;28;20040;-67
2021/01/11 06:56:10;;;;;;;23.45;15.20;;;-9.50;98.00;;;;;;5079589;28;20085;-65
2021/01/11 06:58:40;;;;;;;27.25;16.02;;;-9.50;98.00;;;;;;5086249;28;20028;-64
2021/01/11 07:01:13;;;;;;;25.02;16.27;;;-9.60;98.00;;;;;;5083983;28;20027;-65
2021/01/11 07:03:49;;;;;;;25.90;16.00;;;-9.70;98.00;;;;;;5091803;28;20012;-65
2021/01/11 07:06:45;;;;;;;27.55;16.63;;;-9.60;98.00;;;;;;5088045;28;20051;-67
2021/01/11 07:09:17;;;;;;;29.90;18.67;;;-9.40;98.00;;;;;;5083281;28;20111;-65
2021/01/11 07:11:45;;;;;;;27.03;17.63;;;-9.20;98.00;;;;;;5084290;28;20413;-67
2021/01/11 07:14:20;;;;;;;30.77;18.27;;;-9.20;98.00;;;;;;5092984;28;20025;-64
2021/01/11 07:16:52;;;;;;;37.80;22.93;;;-9.20;98.00;;;;;;5084999;28;20036;-65
2021/01/11 07:19:22;;;;;;;36.60;19.90;;;-9.10;98.00;;;;;;5097591;28;20391;-66
2021/01/11 07:21:50;;;;;;;30.50;17.70;;;-9.00;98.00;;;;;;5095252;28;20324;-67
2021/01/11 07:24:17;;;;;;;39.17;21.03;;;-8.90;98.00;;;;;;5097635;28;20020;-66
2021/01/11 07:26:43;;;;;;;33.87;21.47;;;-9.00;98.00;;;;;;5081919;28;20037;-65
2021/01/11 07:29:11;;;;;;;60.97;28.42;;;-9.00;98.00;;;;;;5077152;28;20086;-65
2021/01/11 07:31:42;;;;;;;45.33;23.10;;;-8.90;98.00;;;;;;5077229;28;20020;-65
2021/01/11 07:34:13;;;;;;;56.08;27.92;;;-8.90;98.00;;;;;;5094566;28;20049;-66
2021/01/11 07:36:44;;;;;;;47.20;23.67;;;-8.90;98.00;;;;;;5092831;28;20019;-67
2021/01/11 07:39:14;;;;;;;35.75;20.17;;;-9.00;98.00;;;;;;5095319;28;20034;-66
2021/01/11 07:41:42;;;;;;;27.63;18.92;;;-9.00;98.00;;;;;;5087222;28;20109;-65
2021/01/11 07:44:24;;;;;;;31.80;17.85;;;-9.10;98.00;;;;;;5096155;28;20034;-65
2021/01/11 07:47:07;;;;;;;32.33;18.10;;;-9.20;98.00;;;;;;5085126;28;20460;-65
2021/01/11 07:49:35;;;;;;;;;;;-9.30;98.00;;;;;;5081331;28;20047;-65
2021/01/11 07:52:04;;;;;;;28.25;18.08;;;-9.30;98.00;;;;;;5092826;28;19923;-65
2021/01/11 07:54:32;;;;;;;28.38;17.77;;;-9.20;98.00;;;;;;5092441;28;20486;-66
2021/01/11 07:56:58;;;;;;;27.40;17.00;;;-9.10;98.00;;;;;;5079637;28;20434;-65
2021/01/11 07:59:24;;;;;;;25.15;15.80;;;-9.10;98.00;;;;;;5087812;28;20032;-65
2021/01/11 08:01:50;;;;;;;28.92;17.25;;;-9.00;98.00;;;;;;5083251;28;20036;-65
2021/01/11 08:04:17;;;;;;;28.80;16.45;;;-8.90;98.00;;;;;;5080008;28;20456;-67
2021/01/11 08:06:50;;;;;;;29.33;17.17;;;-8.80;98.00;;;;;;5073620;28;20035;-68
2021/01/11 08:09:17;;;;;;;31.97;17.60;;;-8.70;98.00;;;;;;5074489;28;20040;-65
2021/01/11 08:11:43;;;;;;;32.70;17.88;;;-8.70;98.00;;;;;;5079815;28;20547;-67
2021/01/11 08:14:10;;;;;;;30.95;19.08;;;-8.60;98.00;;;;;;5084821;28;20030;-67
2021/01/11 08:16:38;;;;;;;32.97;18.83;;;-8.60;98.00;;;;;;5074736;28;21340;-67
2021/01/11 08:19:11;;;;;;;34.22;19.20;;;-8.60;98.00;;;;;;5075877;28;20380;-67
2021/01/11 08:21:38;;;;;;;26.98;16.77;;;-8.60;98.00;;;;;;5083190;28;20034;-66
2021/01/11 08:24:06;;;;;;;28.60;17.92;;;-8.70;98.00;;;;;;5073265;28;20035;-67
2021/01/11 08:27:01;;;;;;;59.78;35.10;;;-8.60;98.00;;;;;;5076549;28;20028;-67
2021/01/11 08:29:30;;;;;;;28.55;18.23;;;-8.50;98.00;;;;;;5075667;28;20047;-67
2021/01/11 08:31:58;;;;;;;28.15;18.27;;;-8.40;98.00;;;;;;5085443;28;20028;-67
2021/01/11 08:34:26;;;;;;;69.80;34.80;;;-8.00;98.00;;;;;;5080562;28;20032;-66
2021/01/11 08:36:52;;;;;;;34.15;19.45;;;-7.00;98.00;;;;;;5080430;28;20024;-66
2021/01/11 08:39:19;;;;;;;33.45;19.40;;;-5.80;98.00;;;;;;5074482;28;20035;-67
2021/01/11 08:41:50;;;;;;;29.33;18.30;;;-5.30;98.00;;;;;;5085798;28;20401;-66
2021/01/11 08:44:33;;;;;;;34.55;17.20;;;-4.90;98.00;;;;;;5088176;28;20106;-66
2021/01/11 08:47:01;;;;;;;25.70;16.75;;;-4.50;98.00;;;;;;5089361;28;20028;-65
2021/01/11 08:49:28;;;;;;;23.10;14.55;;;-4.30;98.00;;;;;;5079037;28;20103;-67
2021/01/11 08:52:05;;;;;;;23.90;14.60;;;-3.80;97.60;;;;;;5077539;28;20767;-65
2021/01/11 08:54:31;;;;;;;22.80;14.30;;;-3.10;98.00;;;;;;5092332;28;20051;-66
2021/01/11 08:56:59;;;;;;;21.65;12.63;;;-2.10;97.30;;;;;;5078718;28;20060;-66
2021/01/11 08:59:25;;;;;;;21.42;13.07;;;-1.70;92.30;;;;;;5083470;28;20031;-67
2021/01/11 09:01:51;;;;;;;24.38;12.77;;;-1.50;89.30;;;;;;5077146;28;20032;-66
2021/01/11 09:04:35;;;;;;;19.48;12.48;;;-1.10;88.60;;;;;;5085944;28;20032;-66
2021/01/11 09:07:05;;;;;;;22.23;13.95;;;-1.10;85.80;;;;;;5078557;28;20077;-66
2021/01/11 09:09:33;;;;;;;21.27;13.00;;;-1.10;85.00;;;;;;5077881;28;20036;-65
2021/01/11 09:12:07;;;;;;;24.13;12.57;;;-0.90;85.40;;;;;;5080667;28;20035;-66
2021/01/11 09:14:34;;;;;;;21.73;12.10;;;0.10;86.80;;;;;;5082409;28;20024;-66
2021/01/11 09:17:02;;;;;;;22.05;12.07;;;1.10;85.40;;;;;;5087258;28;20166;-68
2021/01/11 09:19:28;;;;;;;22.77;14.30;;;1.60;84.60;;;;;;5086989;28;20028;-67
2021/01/11 09:22:06;;;;;;;22.52;11.73;;;2.90;81.20;;;;;;5084294;28;20128;-66
2021/01/11 09:24:32;;;;;;;21.77;13.00;;;3.10;75.50;;;;;;5088577;28;20523;-67
2021/01/11 09:26:59;;;;;;;20.15;12.40;;;3.30;73.80;;;;;;5088720;28;20106;-67
2021/01/11 09:29:25;;;;;;;17.33;11.68;;;2.90;73.60;;;;;;5081642;28;20027;-66
2021/01/11 09:31:51;;;;;;;18.58;11.52;;;2.40;73.60;;;;;;5072181;28;20060;-66
2021/01/11 09:34:18;;;;;;;21.65;12.10;;;1.50;74.20;;;;;;5088789;28;20059;-65
2021/01/11 09:36:44;;;;;;;21.38;11.80;;;1.90;79.00;;;;;;5082767;28;20113;-67
2021/01/11 09:39:11;;;;;;;20.25;12.10;;;2.60;75.60;;;;;;5081364;28;20038;-66
2021/01/11 09:41:45;;;;;;;19.10;12.15;;;1.50;75.10;;;;;;5071994;28;20036;-66
2021/01/11 09:44:11;;;;;;;17.35;10.65;;;2.00;75.60;;;;;;5087401;28;20028;-68
2021/01/11 09:46:57;;;;;;;18.30;10.68;;;2.30;74.10;;;;;;5089740;28;20024;-66
2021/01/11 09:49:23;;;;;;;22.38;12.73;;;2.20;74.20;;;;;;5072525;28;20028;-68
2021/01/11 09:51:50;;;;;;;20.27;12.70;;;2.20;72.90;;;;;;5071439;28;20096;-66
2021/01/11 09:54:17;;;;;;;25.73;14.25;;;2.70;72.10;;;;;;5081658;28;20031;-67
2021/01/11 09:56:43;;;;;;;26.98;13.20;;;2.80;70.60;;;;;;5083490;28;20056;-66
2021/01/11 09:59:10;;;;;;;26.25;14.90;;;3.30;71.60;;;;;;5071927;28;20071;-67
2021/01/11 10:01:46;;;;;;;25.08;14.50;;;3.00;69.20;;;;;;5072116;28;20021;-68
2021/01/11 10:04:14;;;;;;;21.77;13.50;;;2.70;69.80;;;;;;5074518;28;20033;-67
2021/01/11 10:06:47;;;;;;;21.92;13.35;;;2.70;70.50;;;;;;5069559;28;20087;-65
2021/01/11 10:09:14;;;;;;;18.52;11.77;;;2.80;71.70;;;;;;5076403;28;20082;-68
2021/01/11 10:11:40;;;;;;;26.90;15.32;;;3.40;70.30;;;;;;5085414;28;20107;-67
2021/01/11 10:14:06;;;;;;;23.95;14.27;;;3.60;69.20;;;;;;5075593;28;20029;-67
2021/01/11 10:16:33;;;;;;;18.98;11.00;;;3.90;68.60;;;;;;5071140;28;20020;-67
2021/01/11 10:18:59;;;;;;;20.73;12.38;;;4.10;67.50;;;;;;5084405;28;20032;-66
2021/01/11 10:21:25;;;;;;;16.33;10.48;;;3.90;66.70;;;;;;5089585;28;20031;-67
2021/01/11 10:23:51;;;;;;;17.60;10.65;;;4.10;67.60;;;;;;5092148;28;20111;-68
2021/01/11 10:26:19;;;;;;;22.67;14.43;;;4.90;67.70;;;;;;5086627;28;20112;-68
2021/01/11 10:28:44;;;;;;;23.58;13.65;;;4.60;64.30;;;;;;5094641;28;20329;-68
2021/01/11 10:31:10;;;;;;;24.08;13.55;;;3.90;65.40;;;;;;5082048;28;20029;-67
2021/01/11 10:33:36;;;;;;;21.85;12.93;;;3.70;67.10;;;;;;5083975;28;20059;-68
2021/01/11 10:36:02;;;;;;;23.23;13.30;;;4.70;66.60;;;;;;5084701;28;20028;-66
2021/01/11 10:38:27;;;;;;;20.75;12.10;;;5.30;64.10;;;;;;5085417;28;20632;-68
2021/01/11 10:40:53;;;;;;;19.92;12.48;;;5.70;63.40;;;;;;5086885;28;20111;-68
2021/01/11 10:43:19;;;;;;;16.63;11.52;;;5.40;63.30;;;;;;5082990;28;20027;-67
2021/01/11 10:45:44;;;;;;;23.30;14.85;;;5.30;63.00;;;;;;5079828;28;20028;-66
2021/01/11 10:48:10;;;;;;;21.63;12.63;;;5.00;64.00;;;;;;5081084;28;20075;-66
2021/01/11 10:50:36;;;;;;;23.88;14.82;;;4.40;65.00;;;;;;5091832;28;20028;-65
2021/01/11 10:53:01;;;;;;;22.50;13.02;;;4.10;65.10;;;;;;5085996;28;20028;-65
2021/01/11 10:55:27;;;;;;;24.05;14.15;;;4.50;65.60;;;;;;5089067;28;20074;-66
2021/01/11 10:57:52;;;;;;;26.42;14.50;;;4.60;65.10;;;;;;5080050;28;20020;-66
2021/01/11 11:00:21;;;;;;;27.75;15.20;;;4.60;65.20;;;;;;5088865;28;20037;-67
2021/01/11 11:02:47;;;;;;;27.17;16.20;;;3.90;64.80;;;;;;5083916;28;20077;-68
2021/01/11 11:05:13;;;;;;;22.20;13.95;;;3.10;67.30;;;;;;5084334;28;20050;-67
2021/01/11 11:07:39;;;;;;;25.08;15.30;;;3.60;67.40;;;;;;5078930;28;20114;-67
2021/01/11 11:10:06;;;;;;;23.08;14.88;;;3.50;66.90;;;;;;5084380;28;20106;-67
2021/01/11 11:12:32;;;;;;;22.42;13.45;;;4.40;66.20;;;;;;5092331;28;20291;-65
2021/01/11 11:14:59;;;;;;;28.50;15.00;;;5.30;63.90;;;;;;5082414;28;20024;-67
2021/01/11 11:17:29;;;;;;;30.33;17.48;;;5.00;64.00;;;;;;5084082;28;20453;-68
2021/01/11 11:19:55;;;;;;;19.52;12.38;;;5.90;64.50;;;;;;5075178;28;20461;-65
2021/01/11 11:22:20;;;;;;;20.50;11.88;;;6.90;61.80;;;;;;5085272;28;20052;-66
2021/01/11 11:24:46;;;;;;;19.90;12.00;;;7.80;60.70;;;;;;5074175;28;20039;-66
2021/01/11 11:27:11;;;;;;;17.90;11.77;;;8.20;58.90;;;;;;5074608;28;20020;-66
2021/01/11 11:29:37;;;;;;;22.42;12.13;;;9.00;56.80;;;;;;5075136;28;20032;-66
2021/01/11 11:32:04;;;;;;;17.77;12.27;;;7.40;58.30;;;;;;5094430;28;20597;-66
2021/01/11 11:34:30;;;;;;;21.77;13.10;;;7.10;59.50;;;;;;5091479;28;20031;-65
2021/01/11 11:36:56;;;;;;;21.48;12.55;;;6.80;60.10;;;;;;5087609;28;20917;-67
2021/01/11 11:39:22;;;;;;;24.58;13.50;;;6.50;60.90;;;;;;5089948;28;20032;-66
2021/01/11 11:41:48;;;;;;;23.15;13.65;;;6.50;61.40;;;;;;5080010;28;20043;-65
2021/01/11 11:44:14;;;;;;;19.23;12.20;;;7.10;61.10;;;;;;5089920;28;20074;-65
2021/01/11 11:46:40;;;;;;;20.92;13.52;;;6.90;60.40;;;;;;5085179;28;20433;-66
2021/01/11 11:49:05;;;;;;;17.65;11.35;;;7.00;61.20;;;;;;5087818;28;20036;-66
2021/01/11 11:51:31;;;;;;;21.40;12.77;;;7.30;59.60;;;;;;5073768;28;20103;-67
2021/01/11 11:53:57;;;;;;;18.55;11.85;;;7.20;58.40;;;;;;5089213;28;20040;-67
2021/01/11 11:56:23;;;;;;;22.00;12.70;;;6.00;60.80;;;;;;5086098;28;20684;-65
2021/01/11 11:58:49;;;;;;;19.88;12.13;;;4.80;64.20;;;;;;5091587;28;20106;-66
2021/01/11 12:01:15;;;;;;;20.42;13.80;;;4.30;64.20;;;;;;5086393;28;20105;-66
2021/01/11 12:03:40;;;;;;;21.05;12.05;;;3.70;65.90;;;;;;5084315;28;20039;-66
2021/01/11 12:06:06;;;;;;;18.83;11.30;;;3.90;67.20;;;;;;5082623;28;20032;-66
2021/01/11 12:08:32;;;;;;;25.70;14.13;;;4.30;65.50;;;;;;5090891;28;20028;-65
2021/01/11 12:10:57;;;;;;;25.42;14.13;;;3.50;65.80;;;;;;5083604;28;20616;-67
2021/01/11 12:13:23;;;;;;;24.27;14.48;;;2.00;68.90;;;;;;5074797;28;20108;-66
2021/01/11 12:15:49;;;;;;;30.08;15.80;;;1.00;71.80;;;;;;5079788;28;20024;-67
2021/01/11 12:18:14;;;;;;;23.15;14.07;;;0.40;75.00;;;;;;5092989;28;20040;-65
2021/01/11 12:20:42;;;;;;;23.58;14.88;;;0.60;76.60;;;;;;5083175;28;20065;-65
2021/01/11 12:23:07;;;;;;;24.73;14.57;;;1.30;75.80;;;;;;5074143;28;20063;-66
2021/01/11 12:25:33;;;;;;;24.10;15.25;;;1.90;72.80;;;;;;5078515;28;20028;-65
2021/01/11 12:27:59;;;;;;;26.13;14.93;;;2.10;72.50;;;;;;5082378;28;20088;-67
2021/01/11 12:30:24;;;;;;;26.20;16.48;;;2.40;72.00;;;;;;5077838;28;20034;-67
2021/01/11 12:32:50;;;;;;;25.98;15.45;;;2.20;71.60;;;;;;5074031;28;20024;-67
2021/01/11 12:35:16;;;;;;;25.50;15.13;;;2.10;72.20;;;;;;5079215;28;20383;-67
2021/01/11 12:37:42;;;;;;;27.63;16.90;;;2.10;72.20;;;;;;5091676;28;20424;-65
2021/01/11 12:40:08;;;;;;;31.55;17.00;;;1.80;72.80;;;;;;5076410;28;20059;-65